Windham, New Hampshire
Current Conditions -  °F | °C
As of 10:54 PM on Sunday 23 Nov 2014 (Local Time) from KLWM Reporting Station
Clear Clear  
Wind Chill: 45°   Ceiling: Unl
Heat Index: 47°   Visibility: 10mi
Dew Point: 32°   Wind: 5mph
Humidity: 56%   Direction: 190°S
Pressure: 30.12"   Gusts: NA
Location:  42.8°N, 71.3°W
Report Text: KLWM 240354Z AUTO 19004KT 10SM CLR 08/00 A3012 RMK AO2 SLP200 T00830000
Loading
Personal Weather Stations






























Interactive Weather Map New forecast layout! Learn more

10-Day Weather Forecast

Advertisements
Track Severe Weather on mobile